Time,TemperatureF,DewpointF,PressureIn,WindDirection,WindDirectionDegrees,WindSpeedMPH,WindSpeedGustMPH,Humidity,HourlyPrecipIn,Conditions,Clouds,dailyrainin,SoftwareType,DateUTC
2013-01-26 00:00:00,2.9,-4.7,30.34,South,180,0.4,0.4,70,0.00,,,0.00,WUHU216HW,2013-01-26 06:00:00,
2013-01-26 00:05:00,2.9,-4.7,30.34,South,180,0.4,0.4,70,0.00,,,0.00,WUHU216HW,2013-01-26 06:05:00,
2013-01-26 01:00:00,2.5,-4.5,30.34,SE,135,0.0,0.0,72,0.00,,,0.00,WUHU216HW,2013-01-26 07:00:00,
2013-01-26 01:05:00,2.5,-4.5,30.34,SE,135,0.9,0.9,72,0.00,,,0.00,WUHU216HW,2013-01-26 07:05:00,
2013-01-26 01:10:00,2.5,-4.5,30.34,East,90,0.2,1.1,72,0.00,,,0.00,WUHU216HW,2013-01-26 07:10:00,
2013-01-26 01:15:00,2.7,-4.3,30.34,East,90,0.0,1.1,72,0.00,,,0.00,WUHU216HW,2013-01-26 07:15:00,
2013-01-26 01:20:00,2.5,-4.5,30.34,SE,135,0.0,0.4,72,0.00,,,0.00,WUHU216HW,2013-01-26 07:20:00,
2013-01-26 01:25:00,2.5,-4.8,30.34,SSW,203,0.0,0.2,71,0.00,,,0.00,WUHU216HW,2013-01-26 07:25:00,
2013-01-26 01:30:00,2.2,-5.1,30.34,NNE,23,0.0,0.2,71,0.00,,,0.00,WUHU216HW,2013-01-26 07:30:00,
2013-01-26 01:35:00,1.8,-5.5,30.34,ESE,113,0.0,0.2,71,0.00,,,0.00,WUHU216HW,2013-01-26 07:35:00,
2013-01-26 01:40:00,1.8,-5.5,30.34,ESE,113,0.0,0.2,71,0.00,,,0.00,WUHU216HW,2013-01-26 07:40:00,
2013-01-26 01:45:00,1.8,-5.2,30.34,NW,315,0.0,0.2,72,0.00,,,0.00,WUHU216HW,2013-01-26 07:45:00,
2013-01-26 01:50:00,1.8,-5.2,30.34,NW,315,0.0,0.2,72,0.00,,,0.00,WUHU216HW,2013-01-26 07:50:00,
2013-01-26 02:00:00,1.4,-5.6,30.34,South,180,0.0,0.0,72,0.00,,,0.00,WUHU216HW,2013-01-26 08:00:00,
2013-01-26 02:05:00,1.4,-5.6,30.34,South,180,0.0,0.0,72,0.00,,,0.00,WUHU216HW,2013-01-26 08:05:00,
2013-01-26 03:00:00,0.0,-6.7,30.34,WNW,293,0.0,0.0,73,0.00,,,0.00,WUHU216HW,2013-01-26 09:00:00,
2013-01-26 03:05:00,0.0,-6.7,30.34,WNW,293,0.0,0.0,73,0.00,,,0.00,WUHU216HW,2013-01-26 09:05:00,
2013-01-26 04:00:00,-1.1,-7.5,30.33,NNW,338,0.0,0.0,74,0.00,,,0.00,WUHU216HW,2013-01-26 10:00:00,
2013-01-26 04:05:00,-1.1,-7.5,30.33,NNW,338,0.0,0.0,74,0.00,,,0.00,WUHU216HW,2013-01-26 10:05:00,
2013-01-26 05:00:00,-1.4,-7.7,30.33,SE,135,0.0,0.0,74,0.00,,,0.00,WUHU216HW,2013-01-26 11:00:00,
2013-01-26 05:05:00,-1.3,-7.6,30.33,SE,135,0.0,0.4,74,0.00,,,0.00,WUHU216HW,2013-01-26 11:05:00,
2013-01-26 05:10:00,-1.4,-7.7,30.34,SSW,203,0.0,0.4,74,0.00,,,0.00,WUHU216HW,2013-01-26 11:10:00,
2013-01-26 05:15:00,-1.4,-7.7,30.34,WSW,248,0.0,0.2,74,0.00,,,0.00,WUHU216HW,2013-01-26 11:15:00,
2013-01-26 05:20:00,-1.4,-7.7,30.34,WSW,248,0.7,0.7,74,0.00,,,0.00,WUHU216HW,2013-01-26 11:20:00,
2013-01-26 05:25:00,-1.1,-7.2,30.34,WSW,248,0.0,0.7,75,0.00,,,0.00,WUHU216HW,2013-01-26 11:25:00,
2013-01-26 05:30:00,-1.3,-7.3,30.34,SW,225,0.0,0.7,75,0.00,,,0.00,WUHU216HW,2013-01-26 11:30:00,
2013-01-26 05:35:00,-1.4,-7.5,30.34,SW,225,0.0,0.2,75,0.00,,,0.00,WUHU216HW,2013-01-26 11:35:00,
2013-01-26 05:40:00,-1.4,-7.5,30.34,WSW,248,0.0,0.4,75,0.00,,,0.00,WUHU216HW,2013-01-26 11:40:00,
2013-01-26 05:45:00,-1.4,-7.5,30.34,WSW,248,0.0,0.4,75,0.00,,,0.00,WUHU216HW,2013-01-26 11:45:00,
2013-01-26 05:50:00,-1.4,-7.5,30.35,WSW,248,0.0,0.0,75,0.00,,,0.00,WUHU216HW,2013-01-26 11:50:00,
2013-01-26 05:55:00,-1.8,-7.8,30.35,WSW,248,0.0,0.0,75,0.00,,,0.00,WUHU216HW,2013-01-26 11:55:00,
2013-01-26 06:00:00,-1.8,-7.8,30.36,WSW,248,0.0,0.0,75,0.00,,,0.00,WUHU216HW,2013-01-26 12:00:00,
2013-01-26 06:05:00,-1.8,-7.8,30.36,WSW,248,0.0,0.0,75,0.00,,,0.00,WUHU216HW,2013-01-26 12:05:00,
2013-01-26 06:10:00,-2.0,-8.0,30.36,WSW,248,0.0,0.0,75,0.00,,,0.00,WUHU216HW,2013-01-26 12:10:00,
2013-01-26 06:15:00,-1.8,-7.8,30.36,WSW,248,0.0,0.0,75,0.00,,,0.00,WUHU216HW,2013-01-26 12:15:00,
2013-01-26 06:20:00,-1.8,-7.8,30.36,WSW,248,0.0,0.0,75,0.00,,,0.00,WUHU216HW,2013-01-26 12:20:00,
2013-01-26 06:25:00,-2.0,-8.0,30.35,WSW,248,0.0,0.0,75,0.00,,,0.00,WUHU216HW,2013-01-26 12:25:00,
2013-01-26 06:30:00,-1.8,-7.8,30.35,SSW,203,0.0,0.0,75,0.00,,,0.00,WUHU216HW,2013-01-26 12:30:00,
2013-01-26 06:35:00,-1.8,-7.8,30.36,SSW,203,0.0,0.0,75,0.00,,,0.00,WUHU216HW,2013-01-26 12:35:00,
2013-01-26 06:40:00,-1.6,-7.6,30.36,SW,225,0.0,0.0,75,0.00,,,0.00,WUHU216HW,2013-01-26 12:40:00,
2013-01-26 06:45:00,-1.4,-7.5,30.37,SW,225,0.0,0.0,75,0.00,,,0.00,WUHU216HW,2013-01-26 12:45:00,
2013-01-26 06:50:00,-1.3,-7.0,30.37,West,270,0.0,0.2,76,0.00,,,0.00,WUHU216HW,2013-01-26 12:50:00,
2013-01-26 06:55:00,-1.3,-7.3,30.36,West,270,0.0,0.2,75,0.00,,,0.00,WUHU216HW,2013-01-26 12:55:00,
2013-01-26 07:00:00,-1.3,-7.3,30.36,ENE,68,0.0,0.0,75,0.00,,,0.00,WUHU216HW,2013-01-26 13:00:00,
2013-01-26 07:05:00,-1.1,-7.2,30.36,ENE,68,0.0,0.0,75,0.00,,,0.00,WUHU216HW,2013-01-26 13:05:00,
2013-01-26 07:10:00,-0.7,-6.2,30.35,East,90,0.0,0.2,77,0.00,,,0.00,WUHU216HW,2013-01-26 13:10:00,
2013-01-26 07:15:00,-0.4,-5.6,30.35,East,90,0.0,0.2,78,0.00,,,0.00,WUHU216HW,2013-01-26 13:15:00,
2013-01-26 07:20:00,-0.4,-5.9,30.36,East,90,0.0,0.2,77,0.00,,,0.00,WUHU216HW,2013-01-26 13:20:00,
2013-01-26 07:25:00,-0.4,-5.9,30.35,ENE,68,0.0,0.2,77,0.00,,,0.00,WUHU216HW,2013-01-26 13:25:00,
2013-01-26 07:30:00,-0.4,-5.9,30.36,ENE,68,0.2,0.2,77,0.00,,,0.00,WUHU216HW,2013-01-26 13:30:00,
2013-01-26 07:35:00,-0.4,-5.9,30.36,East,90,0.0,0.2,77,0.00,,,0.00,WUHU216HW,2013-01-26 13:35:00,
2013-01-26 07:40:00,-0.4,-5.9,30.36,East,90,0.4,0.4,77,0.00,,,0.00,WUHU216HW,2013-01-26 13:40:00,
2013-01-26 07:45:00,-0.2,-5.1,30.35,ESE,113,0.4,0.9,79,0.00,,,0.00,WUHU216HW,2013-01-26 13:45:00,
2013-01-26 07:50:00,-0.2,-5.8,30.36,ENE,68,0.2,0.9,77,0.00,,,0.00,WUHU216HW,2013-01-26 13:50:00,
2013-01-26 07:55:00,-0.2,-5.8,30.36,ENE,68,0.2,0.7,77,0.00,,,0.00,WUHU216HW,2013-01-26 13:55:00,
2013-01-26 08:00:00,-0.2,-5.8,30.37,WSW,248,0.0,0.4,77,0.00,,,0.00,WUHU216HW,2013-01-26 14:00:00,
2013-01-26 08:05:00,-0.4,-5.9,30.37,SW,225,0.0,0.9,77,0.00,,,0.00,WUHU216HW,2013-01-26 14:05:00,
2013-01-26 08:10:00,-0.4,-5.9,30.37,SSW,203,0.0,0.9,77,0.00,,,0.00,WUHU216HW,2013-01-26 14:10:00,
2013-01-26 08:15:00,-0.4,-5.9,30.37,SSW,203,0.0,0.0,77,0.00,,,0.00,WUHU216HW,2013-01-26 14:15:00,
2013-01-26 09:00:00,3.2,-1.6,30.37,SSE,158,0.0,0.0,80,0.00,,,0.00,WUHU216HW,2013-01-26 15:00:00,
2013-01-26 09:05:00,3.2,-1.6,30.37,SSE,158,0.0,0.0,80,0.00,,,0.00,WUHU216HW,2013-01-26 15:05:00,
2013-01-26 10:00:00,7.7,1.4,30.37,SSE,158,0.4,0.4,75,0.00,,,0.00,WUHU216HW,2013-01-26 16:00:00,
2013-01-26 10:05:00,7.7,1.4,30.37,SSE,158,0.4,0.4,75,0.00,,,0.00,WUHU216HW,2013-01-26 16:05:00,
2013-01-26 11:00:00,13.0,5.0,30.34,SE,135,4.3,4.3,70,0.00,,,0.00,WUHU216HW,2013-01-26 17:00:00,
2013-01-26 11:05:00,13.7,5.4,30.34,East,90,1.1,4.3,69,0.00,,,0.00,WUHU216HW,2013-01-26 17:05:00,
2013-01-26 11:10:00,14.0,5.4,30.34,ESE,113,0.2,4.3,68,0.00,,,0.00,WUHU216HW,2013-01-26 17:10:00,
2013-01-26 11:15:00,14.6,5.6,30.34,East,90,4.0,4.0,67,0.00,,,0.00,WUHU216HW,2013-01-26 17:15:00,
2013-01-26 11:20:00,15.3,6.6,30.34,SE,135,2.2,4.0,68,0.00,,,0.00,WUHU216HW,2013-01-26 17:20:00,
2013-01-26 11:25:00,15.8,6.8,30.34,East,90,0.2,2.9,67,0.00,,,0.00,WUHU216HW,2013-01-26 17:25:00,
2013-01-26 11:30:00,16.9,7.1,30.32,SE,135,2.5,4.0,65,0.00,,,0.00,WUHU216HW,2013-01-26 17:30:00,
2013-01-26 11:35:00,16.9,6.4,30.31,South,180,0.7,5.8,63,0.00,,,0.00,WUHU216HW,2013-01-26 17:35:00,
2013-01-26 11:40:00,17.1,6.0,30.32,ENE,68,4.0,5.8,61,0.00,,,0.00,WUHU216HW,2013-01-26 17:40:00,
2013-01-26 11:45:00,17.3,6.5,30.32,ESE,113,2.5,5.4,62,0.00,,,0.00,WUHU216HW,2013-01-26 17:45:00,
2013-01-26 11:50:00,18.0,7.1,30.31,East,90,0.4,4.7,62,0.00,,,0.00,WUHU216HW,2013-01-26 17:50:00,
2013-01-26 11:55:00,19.1,8.5,30.31,SE,135,1.8,3.4,63,0.00,,,0.00,WUHU216HW,2013-01-26 17:55:00,
2013-01-26 12:00:00,19.1,7.4,30.31,ESE,113,1.8,3.4,60,0.00,,,0.00,WUHU216HW,2013-01-26 18:00:00,
2013-01-26 12:05:00,18.4,6.4,30.31,ESE,113,3.8,4.0,59,0.00,,,0.00,WUHU216HW,2013-01-26 18:05:00,
2013-01-26 12:10:00,17.8,6.3,30.31,East,90,2.0,4.0,60,0.00,,,0.00,WUHU216HW,2013-01-26 18:10:00,
2013-01-26 12:15:00,17.6,6.1,30.31,ESE,113,2.2,4.0,60,0.00,,,0.00,WUHU216HW,2013-01-26 18:15:00,
2013-01-26 12:20:00,18.2,6.9,30.31,SE,135,1.3,3.8,61,0.00,,,0.00,WUHU216HW,2013-01-26 18:20:00,
2013-01-26 12:25:00,19.8,8.1,30.31,SW,225,0.7,3.1,60,0.00,,,0.00,WUHU216HW,2013-01-26 18:25:00,
2013-01-26 12:30:00,19.6,7.1,30.30,SSE,158,3.1,5.6,58,0.00,,,0.00,WUHU216HW,2013-01-26 18:30:00,
2013-01-26 12:35:00,20.9,7.9,30.30,SE,135,3.4,5.6,57,0.00,,,0.00,WUHU216HW,2013-01-26 18:35:00,
2013-01-26 12:40:00,21.4,7.7,30.30,East,90,0.4,5.6,55,0.00,,,0.00,WUHU216HW,2013-01-26 18:40:00,
2013-01-26 12:45:00,21.4,7.7,30.30,SSE,158,1.1,4.0,55,0.00,,,0.00,WUHU216HW,2013-01-26 18:45:00,
2013-01-26 12:50:00,22.0,8.6,30.29,East,90,2.7,4.5,56,0.00,,,0.00,WUHU216HW,2013-01-26 18:50:00,
2013-01-26 12:55:00,22.1,8.4,30.29,ESE,113,2.5,4.9,55,0.00,,,0.00,WUHU216HW,2013-01-26 18:55:00,
2013-01-26 13:00:00,22.0,7.7,30.29,SSE,158,2.2,4.9,54,0.00,,,0.00,WUHU216HW,2013-01-26 19:00:00,
2013-01-26 13:05:00,21.8,8.0,30.29,East,90,1.8,4.9,55,0.00,,,0.00,WUHU216HW,2013-01-26 19:05:00,
2013-01-26 13:10:00,21.8,7.6,30.28,SE,135,1.8,3.8,54,0.00,,,0.00,WUHU216HW,2013-01-26 19:10:00,
2013-01-26 13:15:00,22.0,7.4,30.27,East,90,1.8,5.4,53,0.00,,,0.00,WUHU216HW,2013-01-26 19:15:00,
2013-01-26 13:20:00,22.1,7.6,30.27,East,90,4.3,5.4,53,0.00,,,0.00,WUHU216HW,2013-01-26 19:20:00,
2013-01-26 13:25:00,22.1,7.1,30.26,ESE,113,2.0,5.4,52,0.00,,,0.00,WUHU216HW,2013-01-26 19:25:00,
2013-01-26 13:30:00,22.5,7.5,30.26,SSE,158,0.4,5.4,52,0.00,,,0.00,WUHU216HW,2013-01-26 19:30:00,
2013-01-26 13:35:00,22.7,8.0,30.26,SSW,203,2.2,5.1,53,0.00,,,0.00,WUHU216HW,2013-01-26 19:35:00,
2013-01-26 13:40:00,22.9,8.2,30.26,SSE,158,2.2,4.7,53,0.00,,,0.00,WUHU216HW,2013-01-26 19:40:00,
2013-01-26 13:45:00,23.0,8.0,30.26,East,90,1.1,6.0,52,0.00,,,0.00,WUHU216HW,2013-01-26 19:45:00,
2013-01-26 13:50:00,23.0,7.6,30.26,ESE,113,2.9,6.0,51,0.00,,,0.00,WUHU216HW,2013-01-26 19:50:00,
2013-01-26 13:55:00,22.9,7.8,30.25,SE,135,1.8,6.0,52,0.00,,,0.00,WUHU216HW,2013-01-26 19:55:00,
2013-01-26 14:00:00,23.0,8.0,30.24,ESE,113,3.4,4.3,52,0.00,,,0.00,WUHU216HW,2013-01-26 20:00:00,
2013-01-26 14:05:00,23.0,8.0,30.24,NE,45,2.5,4.7,52,0.00,,,0.00,WUHU216HW,2013-01-26 20:05:00,
2013-01-26 14:10:00,23.0,8.0,30.24,NE,45,2.5,4.7,52,0.00,,,0.00,WUHU216HW,2013-01-26 20:10:00,
2013-01-26 15:00:00,25.7,8.6,30.23,ESE,113,2.7,2.7,48,0.00,,,0.00,WUHU216HW,2013-01-26 21:00:00,
2013-01-26 15:05:00,25.7,8.6,30.23,ESE,113,2.7,2.7,48,0.00,,,0.00,WUHU216HW,2013-01-26 21:05:00,
2013-01-26 16:00:00,25.9,9.8,30.21,South,180,2.9,2.9,50,0.00,,,0.00,WUHU216HW,2013-01-26 22:00:00,
2013-01-26 16:05:00,25.9,9.8,30.21,South,180,2.9,2.9,50,0.00,,,0.00,WUHU216HW,2013-01-26 22:05:00,
2013-01-26 17:00:00,25.6,10.3,30.18,SE,135,2.0,2.0,52,0.00,,,0.00,WUHU216HW,2013-01-26 23:00:00,
2013-01-26 17:05:00,25.6,10.7,30.18,ESE,113,1.6,4.0,53,0.00,,,0.00,WUHU216HW,2013-01-26 23:05:00,
2013-01-26 17:10:00,25.6,10.3,30.18,SE,135,2.5,4.0,52,0.00,,,0.00,WUHU216HW,2013-01-26 23:10:00,
2013-01-26 17:15:00,25.6,10.3,30.18,SE,135,2.5,3.8,52,0.00,,,0.00,WUHU216HW,2013-01-26 23:15:00,
2013-01-26 18:00:00,25.2,10.4,30.18,NNW,338,1.1,1.1,53,0.00,,,0.00,WUHU216HW,2013-01-27 00:00:00,
2013-01-26 18:05:00,25.2,10.4,30.18,ESE,113,4.0,4.0,53,0.00,,,0.00,WUHU216HW,2013-01-27 00:05:00,
2013-01-26 18:10:00,25.2,10.4,30.18,ESE,113,3.1,4.7,53,0.00,,,0.00,WUHU216HW,2013-01-27 00:10:00,
2013-01-26 18:15:00,25.2,10.4,30.18,West,270,1.1,4.7,53,0.00,,,0.00,WUHU216HW,2013-01-27 00:15:00,
2013-01-26 18:20:00,25.2,10.8,30.18,ENE,68,1.8,3.6,54,0.00,,,0.00,WUHU216HW,2013-01-27 00:20:00,
2013-01-26 18:25:00,25.2,10.8,30.18,SW,225,1.8,4.7,54,0.00,,,0.00,WUHU216HW,2013-01-27 00:25:00,
2013-01-26 18:30:00,25.0,10.6,30.18,East,90,0.4,4.7,54,0.00,,,0.00,WUHU216HW,2013-01-27 00:30:00,
2013-01-26 18:35:00,25.0,10.6,30.18,SE,135,3.1,3.8,54,0.00,,,0.00,WUHU216HW,2013-01-27 00:35:00,
2013-01-26 18:40:00,24.8,10.4,30.18,ESE,113,2.5,3.8,54,0.00,,,0.00,WUHU216HW,2013-01-27 00:40:00,
2013-01-26 18:45:00,24.8,10.9,30.17,South,180,0.7,3.8,55,0.00,,,0.00,WUHU216HW,2013-01-27 00:45:00,
2013-01-26 18:50:00,24.8,10.9,30.17,East,90,2.2,3.8,55,0.00,,,0.00,WUHU216HW,2013-01-27 00:50:00,
2013-01-26 18:55:00,24.8,10.9,30.17,NE,45,0.4,3.4,55,0.00,,,0.00,WUHU216HW,2013-01-27 00:55:00,
2013-01-26 19:00:00,24.7,10.7,30.17,SE,135,0.9,3.4,55,0.00,,,0.00,WUHU216HW,2013-01-27 01:00:00,
2013-01-26 19:05:00,24.7,11.2,30.17,East,90,2.9,2.9,56,0.00,,,0.00,WUHU216HW,2013-01-27 01:05:00,
2013-01-26 19:10:00,24.7,11.2,30.17,NNE,23,0.7,4.0,56,0.00,,,0.00,WUHU216HW,2013-01-27 01:10:00,
2013-01-26 19:15:00,24.7,11.2,30.17,ENE,68,2.0,5.1,56,0.00,,,0.00,WUHU216HW,2013-01-27 01:15:00,
2013-01-26 19:20:00,24.7,11.2,30.17,ENE,68,1.1,5.1,56,0.00,,,0.00,WUHU216HW,2013-01-27 01:20:00,
2013-01-26 19:25:00,24.7,11.2,30.17,SE,135,2.5,3.8,56,0.00,,,0.00,WUHU216HW,2013-01-27 01:25:00,
2013-01-26 19:30:00,24.7,11.2,30.17,SE,135,2.7,3.8,56,0.00,,,0.00,WUHU216HW,2013-01-27 01:30:00,
2013-01-26 19:35:00,24.7,11.2,30.17,SE,135,2.7,2.7,56,0.00,,,0.00,WUHU216HW,2013-01-27 01:35:00,
2013-01-26 20:00:00,24.7,11.5,30.17,East,90,0.4,0.4,57,0.00,,,0.00,WUHU216HW,2013-01-27 02:00:00,
2013-01-26 20:05:00,24.7,11.5,30.17,East,90,0.4,0.4,57,0.00,,,0.00,WUHU216HW,2013-01-27 02:05:00,
2013-01-26 21:00:00,23.8,11.5,30.16,ENE,68,1.1,1.1,59,0.00,,,0.00,WUHU216HW,2013-01-27 03:00:00,
2013-01-26 21:05:00,23.8,11.5,30.16,ENE,68,1.1,1.1,59,0.00,,,0.00,WUHU216HW,2013-01-27 03:05:00,
2013-01-26 22:00:00,23.0,11.2,30.14,East,90,0.4,0.4,60,0.00,,,0.00,WUHU216HW,2013-01-27 04:00:00,
2013-01-26 22:05:00,23.0,11.2,30.14,East,90,0.4,0.4,60,0.00,,,0.00,WUHU216HW,2013-01-27 04:05:00,
2013-01-26 23:00:00,23.6,11.7,30.13,ESE,113,0.9,0.9,60,0.00,,,0.00,WUHU216HW,2013-01-27 05:00:00,
2013-01-26 23:01:00,23.6,11.7,30.13,ESE,113,0.9,0.9,60,0.00,,,0.00,WUHU216HW,2013-01-27 05:01:00,
2013-01-26 23:03:00,23.6,11.7,30.13,ESE,113,0.9,0.9,60,0.00,,,0.00,WUHU216HW,2013-01-27 05:03:00,
2013-01-26 23:08:00,23.6,11.7,30.13,ESE,113,0.9,0.9,60,0.00,,,0.00,WUHU216HW,2013-01-27 05:08:00,